Time;durP1;ratioP1;P1;durP2;ratioP2;P2;SDS_P1;SDS_P2;PMS_P1;PMS_P2;Temp;Humidity;BMP_temperature;BMP_pressure;BME280_temperature;BME280_humidity;BME280_pressure;Samples;Min_cycle;Max_cycle;Signal;HPM_P1;HPM_P2
2023/03/12 00:00:35;;;;;;;;;;;;;;;2.86;50.26;99862.75;5369651;32;34581;-70
2023/03/12 00:03:39;;;;;;;;;;;;;;;3.11;49.79;99857.16;5364336;32;33115;-60
2023/03/12 00:06:41;;;;;;;;;;;;;;;2.85;49.58;99857.59;5351018;32;48968;-70
2023/03/12 00:09:44;;;;;;;;;;;;;;;2.83;50.28;99887.88;5360245;32;35536;-61
2023/03/12 00:12:46;;;;;;;;;;;;;;;2.99;49.58;99891.97;5390675;32;36012;-60
2023/03/12 00:15:47;;;;;;;;;;;;;;;2.53;50.54;99897.00;5369418;32;35436;-70
2023/03/12 00:18:51;;;;;;;;;;;;;;;3.16;48.88;99871.78;5389892;32;36018;-69
2023/03/12 00:21:52;;;;;;;;;;;;;;;2.99;49.67;99879.84;5362933;32;35396;-61
2023/03/12 00:24:55;;;;;;;;;;;;;;;2.96;49.95;99904.97;5381471;32;34855;-70
2023/03/12 00:27:57;;;;;;;;;;;;;;;3.52;48.26;99900.56;5363515;32;34454;-60
2023/03/12 00:30:59;;;;;;;;;;;;;;;3.39;48.23;99904.28;5352170;32;36393;-60
2023/03/12 00:34:01;;;;;;;;;;;;;;;2.31;50.93;99914.56;5380247;32;35930;-70
2023/03/12 00:37:03;;;;;;;;;;;;;;;2.93;49.37;99920.62;5357093;32;36795;-71
2023/03/12 00:40:07;;;;;;;;;;;;;;;2.29;50.75;99930.16;5389513;32;36625;-69
2023/03/12 00:43:09;;;;;;;;;;;;;;;2.39;50.23;99923.97;5351263;32;47106;-70
2023/03/12 00:46:11;;;;;;;;;;;;;;;3.24;47.84;99923.59;5366011;32;35424;-59
2023/03/12 00:49:13;;;;;;;;;;;;;;;2.95;48.66;99944.81;5355995;32;34784;-68
2023/03/12 00:52:15;;;;;;;;;;;;;;;2.48;49.26;99942.88;5352103;32;34929;-68
2023/03/12 00:55:17;;;;;;;;;;;;;;;2.57;48.66;99943.59;5390105;32;35324;-71
2023/03/12 00:58:19;;;;;;;;;;;;;;;2.83;48.14;99940.66;5341335;32;36550;-60
2023/03/12 01:01:21;;;;;;;;;;;;;;;2.43;48.88;99936.00;5368552;32;36691;-62
2023/03/12 01:04:23;;;;;;;;;;;;;;;3.41;45.85;99938.88;5340485;32;35995;-72
2023/03/12 01:07:25;;;;;;;;;;;;;;;3.01;46.83;99949.03;5338091;32;35917;-68
2023/03/12 01:10:27;;;;;;;;;;;;;;;2.98;47.23;99965.53;5365477;32;37573;-61
2023/03/12 01:13:29;;;;;;;;;;;;;;;3.05;47.00;99963.72;5354239;32;36046;-62
2023/03/12 01:16:31;;;;;;;;;;;;;;;3.05;46.60;99942.94;5379529;32;35447;-71
2023/03/12 01:19:32;;;;;;;;;;;;;;;3.43;45.93;99950.97;5355477;32;35635;-61
2023/03/12 01:22:35;;;;;;;;;;;;;;;3.07;46.39;99939.44;5388040;32;35856;-68
2023/03/12 01:25:36;;;;;;;;;;;;;;;2.89;46.75;99937.97;5370899;32;35445;-67
2023/03/12 01:28:38;;;;;;;;;;;;;;;3.18;46.26;99944.47;5378182;32;47120;-60
2023/03/12 01:31:40;;;;;;;;;;;;;;;3.25;45.51;99933.94;5382421;32;35770;-62
2023/03/12 01:34:43;;;;;;;;;;;;;;;3.38;44.63;99934.59;5372330;32;36217;-72
2023/03/12 01:37:45;;;;;;;;;;;;;;;3.15;45.21;99939.28;5375208;32;35449;-68
2023/03/12 01:40:47;;;;;;;;;;;;;;;3.09;45.42;99948.06;5372051;32;34796;-61
2023/03/12 01:43:49;;;;;;;;;;;;;;;2.82;45.15;99953.66;5384405;32;34759;-72
2023/03/12 01:46:51;;;;;;;;;;;;;;;3.20;44.59;99955.66;5365203;32;34756;-70
2023/03/12 01:49:53;;;;;;;;;;;;;;;3.13;44.36;99965.28;5371091;32;36780;-72
2023/03/12 01:52:55;;;;;;;;;;;;;;;3.80;43.26;99961.56;5373137;32;36214;-72
2023/03/12 01:55:57;;;;;;;;;;;;;;;3.82;41.63;99945.09;5374925;32;35596;-62
2023/03/12 01:58:59;;;;;;;;;;;;;;;4.26;41.14;99970.25;5357409;32;35581;-61
2023/03/12 02:02:02;;;;;;;;;;;;;;;3.68;41.91;99968.75;5353746;32;35962;-73
2023/03/12 02:05:06;;;;;;;;;;;;;;;3.63;42.46;99971.41;5339531;32;34945;-71
2023/03/12 02:08:09;;;;;;;;;;;;;;;4.75;40.51;99972.66;5342867;32;36787;-61
2023/03/12 02:11:11;;;;;;;;;;;;;;;4.33;40.80;99977.03;5349849;32;37318;-61
2023/03/12 02:14:13;;;;;;;;;;;;;;;3.78;42.44;99993.66;5371745;32;37127;-72
2023/03/12 02:17:14;;;;;;;;;;;;;;;3.47;43.23;99995.91;5338662;32;35549;-60
2023/03/12 02:20:17;;;;;;;;;;;;;;;3.15;44.43;100004.22;5352290;32;35017;-73
2023/03/12 02:23:25;;;;;;;;;;;;;;;2.60;45.61;99994.63;5363449;32;36587;-61
2023/03/12 02:26:27;;;;;;;;;;;;;;;2.99;45.45;100004.44;5367426;32;36991;-71
2023/03/12 02:29:29;;;;;;;;;;;;;;;2.83;45.85;99992.56;5356261;32;36088;-61
2023/03/12 02:32:35;;;;;;;;;;;;;;;3.27;45.09;100011.81;5352785;32;35575;-60
2023/03/12 02:35:37;;;;;;;;;;;;;;;3.25;45.56;100005.81;5372771;32;34839;-61
2023/03/12 02:38:45;;;;;;;;;;;;;;;3.19;45.47;100009.34;5340067;32;46285;-71
2023/03/12 02:41:48;;;;;;;;;;;;;;;2.79;46.67;100027.25;5389327;32;34918;-71
2023/03/12 02:44:50;;;;;;;;;;;;;;;3.01;46.06;100030.37;5352870;32;35321;-61
2023/03/12 02:47:52;;;;;;;;;;;;;;;2.35;47.65;100033.81;5378072;32;35390;-72
2023/03/12 02:50:53;;;;;;;;;;;;;;;2.91;46.50;100034.88;5355485;32;35915;-69
2023/03/12 02:53:55;;;;;;;;;;;;;;;2.39;47.60;100042.44;5335045;32;35862;-71
2023/03/12 02:56:57;;;;;;;;;;;;;;;3.25;46.36;100043.03;5372048;32;35339;-62
2023/03/12 02:59:59;;;;;;;;;;;;;;;2.18;48.42;100046.97;5361049;32;36426;-70
2023/03/12 03:03:01;;;;;;;;;;;;;;;2.87;46.97;100045.28;5366577;32;34927;-71
2023/03/12 03:06:03;;;;;;;;;;;;;;;2.43;48.12;100046.69;5329128;32;36770;-71
2023/03/12 03:09:05;;;;;;;;;;;;;;;2.85;47.49;100047.06;5373810;32;36915;-70
2023/03/12 03:12:07;;;;;;;;;;;;;;;2.56;48.02;100061.25;5348375;32;35907;-62
2023/03/12 03:15:09;;;;;;;;;;;;;;;2.51;49.08;100065.62;5352135;32;47307;-60
2023/03/12 03:18:11;;;;;;;;;;;;;;;2.58;49.31;100069.88;5367130;32;35428;-60
2023/03/12 03:21:15;;;;;;;;;;;;;;;2.63;49.84;100072.41;5350295;32;35574;-66
2023/03/12 03:24:17;;;;;;;;;;;;;;;2.33;50.30;100077.06;5374932;32;34700;-66
2023/03/12 03:27:19;;;;;;;;;;;;;;;1.90;51.91;100089.59;5342268;32;35528;-60
2023/03/12 03:30:21;;;;;;;;;;;;;;;2.12;51.06;100095.41;5364572;32;36330;-71
2023/03/12 03:33:23;;;;;;;;;;;;;;;2.60;50.25;100099.25;5366096;32;36461;-68
2023/03/12 03:36:25;;;;;;;;;;;;;;;2.21;50.66;100112.66;5342000;32;35469;-72
2023/03/12 03:39:28;;;;;;;;;;;;;;;2.23;50.92;100106.56;5370790;32;36250;-71
2023/03/12 03:42:29;;;;;;;;;;;;;;;2.50;50.38;100112.34;5339351;32;35277;-60
2023/03/12 03:45:31;;;;;;;;;;;;;;;2.48;50.17;100106.31;5372591;32;35391;-70
2023/03/12 03:48:33;;;;;;;;;;;;;;;2.18;51.32;100108.31;5341377;32;34663;-70
2023/03/12 03:51:35;;;;;;;;;;;;;;;2.24;51.44;100116.06;5379475;32;36331;-60
2023/03/12 03:54:37;;;;;;;;;;;;;;;1.95;51.54;100118.91;5367527;32;34679;-71
2023/03/12 03:57:39;;;;;;;;;;;;;;;2.36;50.80;100115.06;5350713;32;44506;-71
2023/03/12 04:00:43;;;;;;;;;;;;;;;2.02;51.63;100106.75;5381689;32;36293;-62
2023/03/12 04:03:45;;;;;;;;;;;;;;;2.83;49.32;100100.72;5345207;32;35977;-70
2023/03/12 04:06:46;;;;;;;;;;;;;;;3.07;48.04;100113.41;5340114;32;34913;-61
2023/03/12 04:09:50;;;;;;;;;;;;;;;2.48;50.26;100125.34;5355329;32;35493;-61
2023/03/12 04:12:52;;;;;;;;;;;;;;;2.35;51.26;100129.78;5373028;32;34930;-62
2023/03/12 04:15:54;;;;;;;;;;;;;;;2.97;49.57;100117.84;5351615;32;39036;-70
2023/03/12 04:18:56;;;;;;;;;;;;;;;3.10;49.37;100128.94;5354167;32;35748;-68
2023/03/12 04:21:58;;;;;;;;;;;;;;;2.73;49.79;100128.53;5370603;32;35920;-61
2023/03/12 04:25:00;;;;;;;;;;;;;;;3.17;48.76;100148.75;5343190;32;35396;-61
2023/03/12 04:28:02;;;;;;;;;;;;;;;1.75;53.11;100164.88;5357942;32;35956;-61
2023/03/12 04:31:05;;;;;;;;;;;;;;;1.71;53.16;100166.59;5364317;32;36051;-61
2023/03/12 04:34:08;;;;;;;;;;;;;;;2.16;51.87;100180.94;5361894;32;36262;-68
2023/03/12 04:37:12;;;;;;;;;;;;;;;2.35;51.60;100191.19;5382228;32;44586;-63
2023/03/12 04:40:14;;;;;;;;;;;;;;;1.93;52.92;100193.22;5353946;32;36002;-60
2023/03/12 04:43:19;;;;;;;;;;;;;;;1.84;53.79;100194.16;5364136;32;35708;-71
2023/03/12 04:46:21;;;;;;;;;;;;;;;1.93;53.05;100208.78;5364359;32;35452;-71
2023/03/12 04:49:23;;;;;;;;;;;;;;;1.50;54.54;100206.44;5372659;32;36136;-66
2023/03/12 04:52:25;;;;;;;;;;;;;;;2.49;52.38;100194.50;5352387;32;36032;-60
2023/03/12 04:55:27;;;;;;;;;;;;;;;1.84;54.22;100201.94;5364146;32;35238;-60
2023/03/12 04:58:29;;;;;;;;;;;;;;;1.42;55.74;100205.63;5352640;32;942918;-61
2023/03/12 05:01:32;;;;;;;;;;;;;;;1.91;54.32;100200.16;5352699;32;34824;-69
2023/03/12 05:04:34;;;;;;;;;;;;;;;1.33;56.28;100216.87;5358992;32;35503;-60
2023/03/12 05:07:36;;;;;;;;;;;;;;;1.67;55.00;100223.63;5352864;32;35560;-70
2023/03/12 05:10:38;;;;;;;;;;;;;;;1.98;54.87;100219.13;5371035;32;34927;-61
2023/03/12 05:13:39;;;;;;;;;;;;;;;2.24;54.41;100224.09;5352751;32;45034;-70
2023/03/12 05:16:41;;;;;;;;;;;;;;;2.02;54.55;100200.09;5371687;32;35868;-70
2023/03/12 05:19:44;;;;;;;;;;;;;;;1.52;56.42;100232.34;5376553;32;36616;-68
2023/03/12 05:22:45;;;;;;;;;;;;;;;1.21;57.89;100231.59;5352215;32;35537;-61
2023/03/12 05:25:47;;;;;;;;;;;;;;;1.67;56.72;100233.97;5366376;32;34698;-62
2023/03/12 05:28:49;;;;;;;;;;;;;;;1.66;56.73;100235.72;5365604;32;35558;-69
2023/03/12 05:31:51;;;;;;;;;;;;;;;1.74;56.15;100251.22;5363949;32;36444;-60
2023/03/12 05:34:53;;;;;;;;;;;;;;;1.62;57.50;100249.56;5358814;32;36956;-61
2023/03/12 05:37:55;;;;;;;;;;;;;;;1.24;58.42;100260.09;5354707;32;35822;-61
2023/03/12 05:40:58;;;;;;;;;;;;;;;1.23;58.25;100237.66;5383693;32;36206;-62
2023/03/12 05:44:00;;;;;;;;;;;;;;;1.50;57.02;100229.75;5353475;32;36242;-70
2023/03/12 05:47:02;;;;;;;;;;;;;;;1.56;57.30;100258.22;5374016;32;36358;-61
2023/03/12 05:50:04;;;;;;;;;;;;;;;2.12;55.93;100262.22;5353379;32;35454;-61
2023/03/12 05:53:06;;;;;;;;;;;;;;;1.97;55.68;100264.06;5370330;32;34906;-61
2023/03/12 05:56:10;;;;;;;;;;;;;;;2.67;54.05;100271.31;5346699;32;35541;-72
2023/03/12 05:59:12;;;;;;;;;;;;;;;3.79;51.13;100268.34;5341676;32;44774;-61
2023/03/12 06:02:13;;;;;;;;;;;;;;;3.08;52.53;100289.09;5376499;32;37232;-66
2023/03/12 06:05:16;;;;;;;;;;;;;;;3.57;50.39;100290.28;5318965;32;34926;-68
2023/03/12 06:08:18;;;;;;;;;;;;;;;4.11;50.17;100287.84;5371564;32;35594;-67
2023/03/12 06:11:19;;;;;;;;;;;;;;;6.39;43.94;100285.28;5362578;32;36162;-60
2023/03/12 06:14:21;;;;;;;;;;;;;;;6.78;43.29;100288.69;5362484;32;35464;-66
2023/03/12 06:17:23;;;;;;;;;;;;;;;7.68;40.33;100290.63;5350701;32;36296;-67
2023/03/12 06:20:25;;;;;;;;;;;;;;;7.51;40.66;100306.78;5367079;32;35569;-61
2023/03/12 06:23:27;;;;;;;;;;;;;;;6.70;42.45;100316.75;5386955;32;36201;-62
2023/03/12 06:26:29;;;;;;;;;;;;;;;7.50;40.68;100317.28;5368698;32;36409;-62
2023/03/12 06:29:31;;;;;;;;;;;;;;;7.86;39.00;100318.03;5373956;32;35857;-61
2023/03/12 06:32:33;;;;;;;;;;;;;;;8.33;38.26;100318.34;5348034;32;35710;-70
2023/03/12 06:35:35;;;;;;;;;;;;;;;7.96;39.08;100321.22;5364905;32;36160;-61
2023/03/12 06:38:37;;;;;;;;;;;;;;;8.89;37.28;100316.56;5352840;32;34762;-68
2023/03/12 06:41:40;;;;;;;;;;;;;;;9.12;36.20;100335.91;5352603;32;44677;-61
2023/03/12 06:44:42;;;;;;;;;;;;;;;8.24;37.58;100340.41;5374180;32;35563;-61
2023/03/12 06:47:44;;;;;;;;;;;;;;;8.95;36.70;100341.69;5369636;32;36769;-69
2023/03/12 06:50:46;;;;;;;;;;;;;;;8.76;37.16;100346.72;5372983;32;35306;-63
2023/03/12 06:53:48;;;;;;;;;;;;;;;8.01;37.14;100351.59;5369882;32;35580;-62
2023/03/12 06:56:50;;;;;;;;;;;;;;;9.87;34.82;100343.75;5389658;32;36920;-62
2023/03/12 06:59:51;;;;;;;;;;;;;;;9.30;34.91;100342.28;5362401;32;35678;-67
2023/03/12 07:02:53;;;;;;;;;;;;;;;8.90;35.95;100357.59;5374395;32;36026;-69
2023/03/12 07:05:56;;;;;;;;;;;;;;;7.58;37.81;100350.16;5367909;32;37126;-70
2023/03/12 07:08:58;;;;;;;;;;;;;;;8.44;36.99;100362.56;5348386;32;36076;-61
2023/03/12 07:12:00;;;;;;;;;;;;;;;8.18;35.87;100365.91;5391457;32;35024;-61
2023/03/12 07:15:03;;;;;;;;;;;;;;;9.34;35.03;100370.09;5370724;32;35267;-69
2023/03/12 07:18:06;;;;;;;;;;;;;;;9.43;34.18;100369.81;5388512;32;35395;-62
2023/03/12 07:21:08;;;;;;;;;;;;;;;9.43;34.44;100382.94;5373514;32;37734;-72
2023/03/12 07:24:10;;;;;;;;;;;;;;;9.68;33.91;100381.16;5339744;32;34850;-71
2023/03/12 07:27:12;;;;;;;;;;;;;;;9.80;33.96;100377.25;5372509;32;35611;-71
2023/03/12 07:30:14;;;;;;;;;;;;;;;9.36;33.51;100381.44;5344945;32;35372;-61
2023/03/12 07:33:16;;;;;;;;;;;;;;;8.83;34.83;100384.06;5391745;32;35323;-62
2023/03/12 07:36:18;;;;;;;;;;;;;;;8.85;34.53;100388.34;5371030;32;35758;-70
2023/03/12 07:39:24;;;;;;;;;;;;;;;8.66;34.30;100398.53;5384504;32;36942;-62
2023/03/12 07:42:26;;;;;;;;;;;;;;;9.04;33.33;100399.09;5353927;32;35959;-68
2023/03/12 07:45:28;;;;;;;;;;;;;;;9.63;32.49;100401.44;5364085;32;35472;-70
2023/03/12 07:48:30;;;;;;;;;;;;;;;8.79;33.68;100403.41;5375560;32;35664;-69
2023/03/12 07:51:32;;;;;;;;;;;;;;;7.55;36.46;100417.41;5371080;32;35754;-60
2023/03/12 07:54:34;;;;;;;;;;;;;;;8.86;34.49;100395.28;5374049;32;35421;-59
2023/03/12 07:57:37;;;;;;;;;;;;;;;9.21;34.00;100407.25;5352069;32;34746;-61
2023/03/12 08:00:39;;;;;;;;;;;;;;;8.61;35.09;100412.69;5376603;32;45023;-69
2023/03/12 08:03:40;;;;;;;;;;;;;;;9.87;33.05;100414.62;5346930;32;36958;-68
2023/03/12 08:06:43;;;;;;;;;;;;;;;8.19;35.18;100418.25;5321425;32;35459;-69
2023/03/12 08:09:48;;;;;;;;;;;;;;;7.31;37.07;100424.13;5372970;32;34800;-67
2023/03/12 08:12:50;;;;;;;;;;;;;;;6.20;39.38;100430.16;5352587;32;36122;-70
2023/03/12 08:15:52;;;;;;;;;;;;;;;5.91;39.74;100433.31;5368331;32;34772;-63
2023/03/12 08:18:54;;;;;;;;;;;;;;;5.74;40.42;100438.84;5360864;32;35228;-62
2023/03/12 08:21:57;;;;;;;;;;;;;;;6.01;38.47;100434.00;5360987;32;37543;-71
2023/03/12 08:24:58;;;;;;;;;;;;;;;6.02;38.77;100433.97;5353772;32;36286;-63
2023/03/12 08:28:00;;;;;;;;;;;;;;;5.30;40.17;100430.03;5353271;32;36131;-61
2023/03/12 08:31:02;;;;;;;;;;;;;;;5.48;40.81;100443.66;5384519;32;35182;-70
2023/03/12 08:34:04;;;;;;;;;;;;;;;5.04;41.17;100456.53;5327684;32;35613;-61
2023/03/12 08:37:06;;;;;;;;;;;;;;;5.43;40.20;100447.19;5385520;32;35192;-61
2023/03/12 08:40:14;;;;;;;;;;;;;;;5.46;40.71;100454.09;5347893;32;44670;-61
2023/03/12 08:43:16;;;;;;;;;;;;;;;6.55;38.11;100441.59;5357996;32;34744;-71
2023/03/12 08:46:18;;;;;;;;;;;;;;;5.92;39.08;100446.31;5372762;32;34877;-62
2023/03/12 08:49:20;;;;;;;;;;;;;;;5.95;38.82;100446.28;5348491;32;35617;-61
2023/03/12 08:52:22;;;;;;;;;;;;;;;5.72;39.90;100457.09;5367215;32;35320;-61
2023/03/12 08:55:24;;;;;;;;;;;;;;;5.77;39.04;100448.34;5347477;32;35770;-67
2023/03/12 08:58:26;;;;;;;;;;;;;;;5.03;40.18;100452.22;5369912;32;36129;-62
2023/03/12 09:01:28;;;;;;;;;;;;;;;6.07;38.83;100420.84;5345079;32;35572;-70
2023/03/12 09:04:30;;;;;;;;;;;;;;;6.26;38.11;100444.81;5339918;32;35346;-70
2023/03/12 09:07:32;;;;;;;;;;;;;;;5.87;38.87;100445.53;5362330;32;35480;-61
2023/03/12 09:10:34;;;;;;;;;;;;;;;6.56;38.08;100435.47;5348609;32;36266;-68
2023/03/12 09:13:36;;;;;;;;;;;;;;;5.54;39.79;100444.41;5367853;32;34726;-68
2023/03/12 09:16:58;;;;;;;;;;;;;;;6.48;37.88;100428.66;5360979;32;36954;-63
2023/03/12 09:20:01;;;;;;;;;;;;;;;5.75;38.99;100418.84;5363453;32;35810;-71
2023/03/12 09:23:02;;;;;;;;;;;;;;;6.39;37.78;100428.88;5354203;32;36705;-62
2023/03/12 09:26:10;;;;;;;;;;;;;;;6.81;36.42;100441.88;5356050;32;36515;-62
2023/03/12 09:29:12;;;;;;;;;;;;;;;5.95;37.86;100441.06;5376844;32;47244;-74
2023/03/12 09:32:15;;;;;;;;;;;;;;;6.43;36.26;100430.50;5348891;32;35282;-62
2023/03/12 09:35:17;;;;;;;;;;;;;;;6.63;35.87;100430.06;5364987;32;35527;-63
2023/03/12 09:38:19;;;;;;;;;;;;;;;6.45;37.01;100428.75;5366323;32;35529;-62
2023/03/12 09:41:25;;;;;;;;;;;;;;;7.04;35.21;100429.12;5358485;32;35563;-71
2023/03/12 09:44:30;;;;;;;;;;;;;;;6.61;36.17;100421.41;5356987;32;35628;-63
2023/03/12 09:47:36;;;;;;;;;;;;;;;6.49;35.74;100433.00;5366377;32;36779;-63
2023/03/12 09:50:42;;;;;;;;;;;;;;;7.37;34.57;100423.97;5358248;32;34527;-59
2023/03/12 09:53:47;;;;;;;;;;;;;;;9.29;32.21;100420.13;5349121;32;47202;-68
2023/03/12 09:56:50;;;;;;;;;;;;;;;10.12;29.64;100412.84;5367785;32;36026;-71
2023/03/12 09:59:52;;;;;;;;;;;;;;;12.69;25.61;100391.50;5346083;32;35429;-71
2023/03/12 10:02:53;;;;;;;;;;;;;;;13.62;24.62;100396.59;5332360;32;35254;-62
2023/03/12 10:06:00;;;;;;;;;;;;;;;14.42;22.88;100375.53;5349105;32;35795;-62
2023/03/12 10:09:06;;;;;;;;;;;;;;;12.08;25.11;100404.88;5351751;32;36185;-64
2023/03/12 10:12:09;;;;;;;;;;;;;;;13.77;24.08;100411.62;5367497;32;36269;-62
2023/03/12 10:15:34;;;;;;;;;;;;;;;13.67;23.40;100407.78;5350989;32;47255;-63
2023/03/12 10:18:45;;;;;;;;;;;;;;;15.57;21.16;100398.97;5351373;32;35389;-63
2023/03/12 10:21:49;;;;;;;;;;;;;;;19.20;17.73;100381.66;5369435;32;35612;-62
2023/03/12 10:25:00;;;;;;;;;;;;;;;19.71;16.51;100386.69;5353492;32;35283;-67
2023/03/12 10:28:13;;;;;;;;;;;;;;;15.21;19.83;100409.09;5375310;32;35333;-63
2023/03/12 10:31:26;;;;;;;;;;;;;;;17.76;17.20;100403.59;5352419;32;47067;-72
2023/03/12 10:34:31;;;;;;;;;;;;;;;18.65;16.92;100395.50;5357947;32;34818;-62
2023/03/12 10:37:38;;;;;;;;;;;;;;;15.87;19.15;100404.25;5366813;32;37126;-72
2023/03/12 10:40:41;;;;;;;;;;;;;;;20.09;15.70;100395.31;5346786;32;43493;-62
2023/03/12 10:43:43;;;;;;;;;;;;;;;21.87;14.08;100391.31;5377558;32;35398;-70
2023/03/12 10:47:08;;;;;;;;;;;;;;;21.36;14.55;100393.91;5345498;32;35366;-63
2023/03/12 10:50:11;;;;;;;;;;;;;;;15.47;17.47;100400.47;5327010;32;44323;-62
2023/03/12 10:53:24;;;;;;;;;;;;;;;19.23;15.46;100391.25;5356096;32;35893;-65
2023/03/12 10:56:29;;;;;;;;;;;;;;;17.31;17.22;100395.94;5342216;32;35446;-72
2023/03/12 10:59:35;;;;;;;;;;;;;;;16.95;17.02;100404.53;5368179;32;35302;-61
2023/03/12 11:02:39;;;;;;;;;;;;;;;18.02;16.43;100402.63;5341024;32;34642;-72
2023/03/12 11:05:54;;;;;;;;;;;;;;;18.52;14.66;100400.84;5341587;32;44614;-63
2023/03/12 11:09:04;;;;;;;;;;;;;;;16.23;16.55;100400.31;5356386;32;34894;-71
2023/03/12 11:12:24;;;;;;;;;;;;;;;15.30;17.46;100405.88;5346474;32;44732;-65
2023/03/12 11:15:27;;;;;;;;;;;;;;;16.42;16.47;100399.97;5368066;32;35265;-63
2023/03/12 11:18:31;;;;;;;;;;;;;;;15.23;17.97;100407.19;5368577;32;35810;-72
2023/03/12 11:21:35;;;;;;;;;;;;;;;16.76;16.63;100385.47;5359798;32;35671;-63
2023/03/12 11:24:53;;;;;;;;;;;;;;;15.90;17.63;100398.75;5359524;32;35401;-67
2023/03/12 11:27:55;;;;;;;;;;;;;;;13.81;19.14;100413.19;5367477;32;35661;-71
2023/03/12 11:30:57;;;;;;;;;;;;;;;16.26;17.32;100389.50;5359238;32;35217;-62
2023/03/12 11:34:02;;;;;;;;;;;;;;;16.06;17.26;100398.69;5334801;32;35608;-73
2023/03/12 11:37:13;;;;;;;;;;;;;;;13.49;19.48;100389.31;5378791;32;36030;-69
2023/03/12 11:40:24;;;;;;;;;;;;;;;14.38;18.80;100400.47;5352967;32;44514;-69
2023/03/12 11:43:42;;;;;;;;;;;;;;;15.70;17.20;100393.81;5354241;32;36269;-62
2023/03/12 11:46:51;;;;;;;;;;;;;;;14.73;18.00;100406.47;5376975;32;47847;-72
2023/03/12 11:49:56;;;;;;;;;;;;;;;13.05;19.88;100409.97;5346860;32;34935;-69
2023/03/12 11:53:10;;;;;;;;;;;;;;;13.73;18.01;100386.34;5386230;32;35558;-72
2023/03/12 11:56:35;;;;;;;;;;;;;;;15.24;16.53;100393.00;5346097;32;44819;-63
2023/03/12 11:59:56;;;;;;;;;;;;;;;14.52;15.71;100399.75;5339746;32;35329;-61
2023/03/12 12:03:00;;;;;;;;;;;;;;;15.56;15.27;100386.66;5379884;32;36644;-61
2023/03/12 12:06:05;;;;;;;;;;;;;;;16.07;15.35;100389.78;5340399;32;35333;-71
2023/03/12 12:09:22;;;;;;;;;;;;;;;16.73;14.97;100375.87;5374712;32;35197;-61
2023/03/12 12:12:24;;;;;;;;;;;;;;;16.63;14.51;100380.06;5350557;32;36135;-64
2023/03/12 12:15:32;;;;;;;;;;;;;;;16.62;13.74;100369.53;5348792;32;36878;-70
2023/03/12 12:18:43;;;;;;;;;;;;;;;18.21;12.94;100364.94;5390340;32;35453;-71
2023/03/12 12:21:55;;;;;;;;;;;;;;;16.53;14.51;100368.31;5346523;32;44563;-62
2023/03/12 12:24:57;;;;;;;;;;;;;;;17.36;14.87;100373.53;5357246;32;37409;-72
2023/03/12 12:28:03;;;;;;;;;;;;;;;16.74;14.43;100372.28;5353471;32;35726;-62
2023/03/12 12:31:08;;;;;;;;;;;;;;;15.97;14.32;100368.31;5349479;32;35965;-69
2023/03/12 12:34:10;;;;;;;;;;;;;;;16.07;14.87;100365.91;5365020;32;44906;-71
2023/03/12 12:37:22;;;;;;;;;;;;;;;15.25;16.02;100358.50;5348482;32;34948;-69
2023/03/12 12:40:26;;;;;;;;;;;;;;;13.59;16.70;100373.84;5366974;32;35262;-67
2023/03/12 12:43:28;;;;;;;;;;;;;;;13.60;16.70;100349.16;5335915;32;34719;-62
2023/03/12 12:46:31;;;;;;;;;;;;;;;14.29;16.01;100364.78;5361840;32;35682;-63
2023/03/12 12:49:42;;;;;;;;;;;;;;;16.19;14.15;100359.00;5347970;32;35538;-62
2023/03/12 12:52:45;;;;;;;;;;;;;;;17.11;13.12;100358.38;5346026;32;46869;-71
2023/03/12 12:55:55;;;;;;;;;;;;;;;19.14;11.86;100352.81;5369789;32;36817;-68
2023/03/12 12:59:06;;;;;;;;;;;;;;;17.06;13.11;100364.00;5370391;32;35794;-71
2023/03/12 13:02:29;;;;;;;;;;;;;;;17.63;12.92;100363.66;5356720;32;46555;-62
2023/03/12 13:05:45;;;;;;;;;;;;;;;19.28;11.33;100354.44;5331401;32;36230;-62
2023/03/12 13:08:47;;;;;;;;;;;;;;;18.02;11.68;100357.41;5347889;32;44826;-62
2023/03/12 13:11:50;;;;;;;;;;;;;;;15.80;12.84;100364.97;5372155;32;36047;-71
2023/03/12 13:14:52;;;;;;;;;;;;;;;19.04;11.12;100346.47;5359030;32;36093;-68
2023/03/12 13:17:54;;;;;;;;;;;;;;;20.74;9.94;100341.19;5366904;32;35325;-71
2023/03/12 13:21:12;;;;;;;;;;;;;;;16.04;12.46;100370.56;5352637;32;35706;-73
2023/03/12 13:24:14;;;;;;;;;;;;;;;18.21;11.62;100354.31;5349994;32;44688;-72
2023/03/12 13:27:22;;;;;;;;;;;;;;;20.58;10.10;100338.91;5369952;32;35384;-62
2023/03/12 13:30:34;;;;;;;;;;;;;;;20.47;10.03;100347.78;5356109;32;35010;-62
2023/03/12 13:33:38;;;;;;;;;;;;;;;18.11;11.12;100351.47;5369911;32;34905;-63
2023/03/12 13:36:40;;;;;;;;;;;;;;;21.88;9.32;100352.03;5356994;32;44642;-63
2023/03/12 13:39:42;;;;;;;;;;;;;;;22.23;8.93;100345.44;5362540;32;35709;-63
2023/03/12 13:42:44;;;;;;;;;;;;;;;21.83;9.62;100363.13;5330374;32;35822;-72
2023/03/12 13:46:04;;;;;;;;;;;;;;;24.46;8.25;100354.19;5341409;32;35147;-71
2023/03/12 13:49:10;;;;;;;;;;;;;;;24.36;8.51;100365.00;5382046;32;35919;-62
2023/03/12 13:52:30;;;;;;;;;;;;;;;25.30;8.19;100356.56;5352479;32;47013;-73
2023/03/12 13:55:33;;;;;;;;;;;;;;;21.88;9.82;100365.41;5386425;32;35656;-62
2023/03/12 13:58:47;;;;;;;;;;;;;;;17.66;12.45;100379.44;5345199;32;35280;-63
2023/03/12 14:01:50;;;;;;;;;;;;;;;17.82;12.43;100382.75;5351703;32;35589;-69
2023/03/12 14:04:52;;;;;;;;;;;;;;;14.34;15.08;100381.25;5340097;32;35595;-62
2023/03/12 14:07:56;;;;;;;;;;;;;;;11.79;16.95;100393.84;5351521;32;35611;-61
2023/03/12 14:11:01;;;;;;;;;;;;;;;13.99;15.48;100392.91;5359518;32;35243;-65
2023/03/12 14:14:06;;;;;;;;;;;;;;;12.90;16.28;100390.47;5350291;32;34669;-62
2023/03/12 14:17:14;;;;;;;;;;;;;;;11.69;17.02;100399.56;5353383;32;45002;-69
2023/03/12 14:20:17;;;;;;;;;;;;;;;12.05;17.00;100399.75;5367710;32;35886;-62
2023/03/12 14:23:19;;;;;;;;;;;;;;;11.25;17.30;100405.78;5344709;32;35543;-69
2023/03/12 14:26:29;;;;;;;;;;;;;;;12.36;15.60;100407.94;5359215;32;36247;-71
2023/03/12 14:29:38;;;;;;;;;;;;;;;11.89;15.34;100400.41;5345258;32;35909;-62
2023/03/12 14:32:40;;;;;;;;;;;;;;;12.21;15.02;100403.41;5365376;32;44313;-70
2023/03/12 14:36:02;;;;;;;;;;;;;;;11.31;15.99;100405.53;5340903;32;36367;-71
2023/03/12 14:39:09;;;;;;;;;;;;;;;11.86;15.48;100386.56;5351947;32;34023;-67
2023/03/12 14:42:17;;;;;;;;;;;;;;;11.25;15.50;100400.53;5366260;32;44703;-70
2023/03/12 14:45:20;;;;;;;;;;;;;;;10.51;15.78;100399.16;5351239;32;35623;-63
2023/03/12 14:48:23;;;;;;;;;;;;;;;10.86;15.84;100384.59;5372730;32;35544;-63
2023/03/12 14:51:26;;;;;;;;;;;;;;;11.37;15.92;100380.72;5334598;32;35906;-71
2023/03/12 14:54:28;;;;;;;;;;;;;;;10.68;16.41;100399.31;5350216;32;35515;-62
2023/03/12 14:57:30;;;;;;;;;;;;;;;10.73;16.45;100407.03;5384495;32;34822;-61
2023/03/12 15:00:32;;;;;;;;;;;;;;;10.87;16.40;100398.59;5345920;32;35737;-70
2023/03/12 15:03:42;;;;;;;;;;;;;;;11.60;15.38;100390.28;5350202;32;36186;-63
2023/03/12 15:06:57;;;;;;;;;;;;;;;11.54;15.91;100380.03;5322559;32;46892;-62
2023/03/12 15:09:59;;;;;;;;;;;;;;;11.35;16.66;100393.13;5348444;32;35320;-69
2023/03/12 15:13:01;;;;;;;;;;;;;;;11.89;16.54;100402.19;5346093;32;35248;-71
2023/03/12 15:16:03;;;;;;;;;;;;;;;11.78;16.65;100397.38;5364069;32;34769;-63
2023/03/12 15:19:05;;;;;;;;;;;;;;;10.85;17.13;100409.19;5376241;32;35805;-72
2023/03/12 15:22:10;;;;;;;;;;;;;;;11.38;16.39;100411.38;5341068;32;35213;-72
2023/03/12 15:25:24;;;;;;;;;;;;;;;11.09;17.19;100402.09;5372480;32;44511;-62
2023/03/12 15:28:27;;;;;;;;;;;;;;;11.88;16.60;100411.03;5360967;32;35673;-62
2023/03/12 15:31:41;;;;;;;;;;;;;;;10.85;18.43;100422.34;5352665;32;35376;-61
2023/03/12 15:34:43;;;;;;;;;;;;;;;11.48;18.12;100417.13;5368342;32;48697;-63
2023/03/12 15:37:49;;;;;;;;;;;;;;;10.57;18.67;100423.41;5354508;32;36326;-70
2023/03/12 15:40:52;;;;;;;;;;;;;;;10.60;18.65;100413.69;5363062;32;36107;-63
2023/03/12 15:43:55;;;;;;;;;;;;;;;10.21;19.15;100430.00;5340438;32;36094;-61
2023/03/12 15:47:02;;;;;;;;;;;;;;;9.14;19.93;100434.56;5360063;32;36070;-62
2023/03/12 15:50:07;;;;;;;;;;;;;;;9.74;19.66;100435.19;5348664;32;37210;-70
2023/03/12 15:53:12;;;;;;;;;;;;;;;9.42;20.16;100445.03;5335528;32;44804;-61
2023/03/12 15:56:15;;;;;;;;;;;;;;;9.34;19.30;100436.56;5369380;32;35783;-70